createdAt,value
2023-05-17T00:02:20.162Z,101340.13
2023-05-17T00:04:51.273Z,101341.03
2023-05-17T00:07:26.611Z,101342.78
2023-05-17T00:10:04.072Z,101330.50
2023-05-17T00:12:50.207Z,101333.13
2023-05-17T00:15:25.569Z,101339.25
2023-05-17T00:18:03.097Z,101337.47
2023-05-17T00:20:41.246Z,101341.88
2023-05-17T00:23:19.815Z,101333.97
2023-05-17T00:26:08.969Z,101336.59
2023-05-17T00:28:41.314Z,101326.94
2023-05-17T00:31:31.916Z,101327.78
2023-05-17T00:34:06.308Z,101325.19
2023-05-17T00:36:47.297Z,101326.91
2023-05-17T00:39:24.876Z,101321.63
2023-05-17T00:42:06.583Z,101322.47
2023-05-17T00:44:42.394Z,101325.06
2023-05-17T00:47:46.099Z,101327.69
2023-05-17T00:50:16.801Z,101323.34
2023-05-17T00:53:09.444Z,101320.69
2023-05-17T00:55:54.000Z,101317.19
2023-05-17T00:58:34.427Z,101311.94
2023-05-17T01:01:02.281Z,101312.81
2023-05-17T01:03:29.690Z,101322.41
2023-05-17T01:05:59.915Z,101310.13
2023-05-17T01:08:27.740Z,101320.59
2023-05-17T01:11:24.791Z,101321.47
2023-05-17T01:14:34.985Z,101324.97
2023-05-17T01:17:17.751Z,101329.31
2023-05-17T01:19:59.028Z,101324.06
2023-05-17T01:23:17.892Z,101327.56
2023-05-17T01:26:41.507Z,101312.66
2023-05-17T01:29:20.032Z,101316.97
2023-05-17T01:31:52.166Z,101312.47
2023-05-17T01:34:30.798Z,101320.38
2023-05-17T01:37:06.526Z,101316.91
2023-05-17T01:39:42.037Z,101320.19
2023-05-17T01:42:41.590Z,101312.41
2023-05-17T01:45:11.755Z,101324.56
2023-05-17T01:48:18.013Z,101322.72
2023-05-17T01:50:56.397Z,101314.00
2023-05-17T01:53:39.470Z,101315.81
2023-05-17T01:56:15.353Z,101314.78
2023-05-17T01:58:47.785Z,101319.16
2023-05-17T02:01:21.562Z,101317.28
2023-05-17T02:04:06.245Z,101322.53
2023-05-17T02:06:59.692Z,101319.03
2023-05-17T02:09:33.903Z,101319.13
2023-05-17T02:12:07.747Z,101319.06
2023-05-17T02:14:41.420Z,101319.13
2023-05-17T02:17:19.440Z,101310.31
2023-05-17T02:19:54.636Z,101315.53
2023-05-17T02:22:24.788Z,101314.59
2023-05-17T02:24:55.375Z,101306.69
2023-05-17T02:27:34.151Z,101313.63
2023-05-17T02:30:07.158Z,101313.63
2023-05-17T02:32:37.970Z,101302.31
2023-05-17T02:35:10.511Z,101303.22
2023-05-17T02:37:43.303Z,101308.44
2023-05-17T02:40:21.484Z,101304.84
2023-05-17T02:42:49.030Z,101306.69
2023-05-17T02:45:18.656Z,101310.13
2023-05-17T02:47:52.042Z,101305.72
2023-05-17T02:50:22.725Z,101304.94
2023-05-17T02:52:56.019Z,101304.00
2023-05-17T02:55:29.522Z,101299.53
2023-05-17T02:58:09.975Z,101298.75
2023-05-17T03:03:21.481Z,101294.31
2023-05-17T03:05:49.021Z,101289.97
2023-05-17T03:08:19.056Z,101286.38
2023-05-17T03:10:47.687Z,101289.00
2023-05-17T03:13:15.028Z,101295.06
2023-05-17T03:15:42.381Z,101289.66
2023-05-17T03:18:11.273Z,101301.78
2023-05-17T03:20:40.088Z,101298.16
2023-05-17T03:23:12.796Z,101297.38
2023-05-17T03:25:57.992Z,101300.88
2023-05-17T03:28:27.087Z,101303.56
2023-05-17T03:30:54.745Z,101311.34
2023-05-17T03:33:22.470Z,101309.50
2023-05-17T03:35:49.695Z,101314.72
2023-05-17T03:38:19.001Z,101321.81
2023-05-17T03:40:46.255Z,101320.97
2023-05-17T03:43:13.588Z,101325.31
2023-05-17T03:45:49.431Z,101321.78
2023-05-17T03:48:19.964Z,101319.22
2023-05-17T03:50:50.267Z,101322.69
2023-05-17T03:53:18.215Z,101316.50
2023-05-17T03:55:47.533Z,101318.13
2023-05-17T03:58:16.235Z,101317.38
2023-05-17T04:00:55.052Z,101309.50
2023-05-17T04:03:24.306Z,101309.56
2023-05-17T04:05:51.427Z,101309.53
2023-05-17T04:08:18.785Z,101308.63
2023-05-17T04:10:46.084Z,101299.03
2023-05-17T04:13:15.627Z,101303.47
2023-05-17T04:15:45.309Z,101304.31
2023-05-17T04:18:13.127Z,101302.50
2023-05-17T04:20:41.382Z,101299.84
2023-05-17T04:23:09.336Z,101300.66
2023-05-17T04:25:40.192Z,101290.16
2023-05-17T04:28:09.273Z,101303.22
2023-05-17T04:33:25.227Z,101299.63
2023-05-17T04:35:57.736Z,101305.75
2023-05-17T04:38:26.977Z,101301.44
2023-05-17T04:41:05.156Z,101294.47
2023-05-17T04:43:37.757Z,101297.09
2023-05-17T04:46:14.749Z,101298.88
2023-05-17T04:48:47.716Z,101296.13
2023-05-17T04:51:15.350Z,101296.16
2023-05-17T04:53:42.845Z,101293.66
2023-05-17T04:56:22.438Z,101298.09
2023-05-17T04:58:53.278Z,101302.47
2023-05-17T05:01:24.117Z,101309.41
2023-05-17T05:03:54.584Z,101308.66
2023-05-17T05:06:25.293Z,101313.06
2023-05-17T05:08:52.875Z,101312.19
2023-05-17T05:11:22.784Z,101314.88
2023-05-17T05:13:50.436Z,101317.50
2023-05-17T05:16:20.697Z,101316.75
2023-05-17T05:18:59.224Z,101321.97
2023-05-17T05:21:28.777Z,101322.03
2023-05-17T05:23:56.568Z,101325.28
2023-05-17T05:26:28.812Z,101329.81
2023-05-17T05:28:58.359Z,101322.81
2023-05-17T05:31:25.734Z,101327.97
2023-05-17T05:34:02.765Z,101327.19
2023-05-17T05:36:37.705Z,101325.47
2023-05-17T05:39:05.554Z,101327.13
2023-05-17T05:41:34.780Z,101331.53
2023-05-17T05:44:01.892Z,101323.69
2023-05-17T05:46:38.152Z,101327.84
2023-05-17T05:49:09.934Z,101332.44
2023-05-17T05:51:47.705Z,101323.34
2023-05-17T05:54:25.944Z,101317.41
2023-05-17T05:57:03.456Z,101328.91
2023-05-17T05:59:33.904Z,101325.47
2023-05-17T06:02:31.993Z,101333.28
2023-05-17T06:05:09.443Z,101332.59
2023-05-17T06:10:29.684Z,101329.78
2023-05-17T06:13:04.904Z,101338.53
2023-05-17T06:15:37.672Z,101338.41
2023-05-17T06:18:12.078Z,101348.03
2023-05-17T06:20:58.922Z,101342.69
2023-05-17T06:23:31.188Z,101346.03
2023-05-17T06:26:10.045Z,101340.94
2023-05-17T06:28:50.340Z,101353.31
2023-05-17T06:31:38.048Z,101340.78
2023-05-17T06:34:10.309Z,101352.16
2023-05-17T06:36:57.114Z,101360.25
2023-05-17T06:39:34.715Z,101358.50
2023-05-17T06:42:18.451Z,101352.56
2023-05-17T06:44:55.876Z,101357.81
2023-05-17T06:47:33.417Z,101357.16
2023-05-17T06:50:16.271Z,101354.56
2023-05-17T06:53:34.507Z,101355.44
2023-05-17T06:56:19.190Z,101358.16
2023-05-17T06:59:04.829Z,101362.63
2023-05-17T07:01:38.061Z,101357.41
2023-05-17T07:04:37.028Z,101369.53
2023-05-17T07:07:22.215Z,101362.25
2023-05-17T07:10:02.822Z,101363.16
2023-05-17T07:12:36.918Z,101365.94
2023-05-17T07:15:14.697Z,101363.16
2023-05-17T07:18:03.811Z,101368.34
2023-05-17T07:20:41.236Z,101366.75
2023-05-17T07:23:20.940Z,101368.53
2023-05-17T07:29:04.290Z,101361.66
2023-05-17T07:31:43.477Z,101360.09
2023-05-17T07:34:14.528Z,101364.53
2023-05-17T07:36:56.855Z,101360.31
2023-05-17T07:39:25.370Z,101353.34
2023-05-17T07:42:05.626Z,101357.78
2023-05-17T07:47:17.321Z,101351.78
2023-05-17T07:50:02.212Z,101355.38
2023-05-17T07:52:37.802Z,101358.94
2023-05-17T07:55:16.774Z,101363.31
2023-05-17T07:57:48.870Z,101362.59
2023-05-17T08:00:19.479Z,101353.88
2023-05-17T08:03:00.408Z,101351.25
2023-05-17T08:05:30.774Z,101354.84
2023-05-17T08:08:01.827Z,101346.19
2023-05-17T08:10:32.896Z,101340.06
2023-05-17T08:13:05.341Z,101340.06
2023-05-17T08:15:58.490Z,101350.63
2023-05-17T08:18:57.966Z,101338.41
2023-05-17T08:22:04.350Z,101334.06
2023-05-17T08:24:40.019Z,101331.41
2023-05-17T08:27:16.347Z,101318.16
2023-05-17T08:29:58.194Z,101310.19
2023-05-17T08:32:36.726Z,101312.59
2023-05-17T08:35:19.143Z,101312.56
2023-05-17T08:38:12.192Z,101299.06
2023-05-17T08:41:03.550Z,101298.88
2023-05-17T08:43:38.604Z,101289.06
2023-05-17T08:46:21.960Z,101291.34
2023-05-17T08:49:07.400Z,101286.88
2023-05-17T08:52:10.289Z,101295.56
2023-05-17T08:55:16.042Z,101292.94
2023-05-17T08:58:18.612Z,101297.66
2023-05-17T09:00:52.392Z,101299.53
2023-05-17T09:03:55.941Z,101301.38
2023-05-17T09:07:20.022Z,101298.41
2023-05-17T09:09:54.748Z,101294.34
2023-05-17T09:12:25.561Z,101291.88
2023-05-17T09:14:53.297Z,101290.09
2023-05-17T09:17:24.837Z,101291.22
2023-05-17T09:20:04.749Z,101291.63
2023-05-17T09:22:40.780Z,101284.38
2023-05-17T09:25:09.013Z,101289.16
2023-05-17T09:27:36.537Z,101291.84
2023-05-17T09:30:13.397Z,101294.16
2023-05-17T09:32:55.900Z,101292.72
2023-05-17T09:35:36.909Z,101284.66
2023-05-17T09:38:26.009Z,101279.59
2023-05-17T09:41:07.036Z,101284.41
2023-05-17T09:43:54.413Z,101270.25
2023-05-17T09:46:57.756Z,101269.63
2023-05-17T09:49:38.962Z,101280.75
2023-05-17T09:52:22.090Z,101272.78
2023-05-17T09:54:59.683Z,101272.75
2023-05-17T09:57:40.214Z,101266.13
2023-05-17T10:00:37.363Z,101267.72
2023-05-17T10:03:28.071Z,101258.66
2023-05-17T10:06:23.750Z,101265.91
2023-05-17T10:09:22.566Z,101266.38
2023-05-17T10:11:59.819Z,101269.69
2023-05-17T10:14:48.947Z,101274.09
2023-05-17T10:17:29.231Z,101266.47
2023-05-17T10:20:24.702Z,101274.69
2023-05-17T10:23:11.085Z,101256.28
2023-05-17T10:25:51.092Z,101274.53
2023-05-17T10:28:39.836Z,101271.66
2023-05-17T10:31:39.209Z,101283.16
2023-05-17T10:34:23.302Z,101274.94
2023-05-17T10:36:59.071Z,101271.50
2023-05-17T10:39:59.383Z,101265.16
2023-05-17T10:42:32.402Z,101277.31
2023-05-17T10:45:11.908Z,101268.94
2023-05-17T10:47:49.511Z,101264.22
2023-05-17T10:50:25.552Z,101294.22
2023-05-17T10:52:59.350Z,101277.31
2023-05-17T10:56:06.179Z,101273.06
2023-05-17T10:58:40.345Z,101259.50
2023-05-17T11:01:11.534Z,101276.78
2023-05-17T11:03:50.509Z,101251.63
2023-05-17T11:06:24.074Z,101260.28
2023-05-17T11:09:26.695Z,101250.38
2023-05-17T11:12:09.484Z,101246.44
2023-05-17T11:15:20.813Z,101245.03
2023-05-17T11:17:57.322Z,101236.56
2023-05-17T11:20:40.142Z,101229.22
2023-05-17T11:23:37.939Z,101242.94
2023-05-17T11:26:25.103Z,101242.41
2023-05-17T11:32:19.281Z,101239.94
2023-05-17T11:35:02.901Z,101231.16
2023-05-17T11:37:38.644Z,101240.41
2023-05-17T11:40:13.810Z,101228.63
2023-05-17T11:42:54.028Z,101225.34
2023-05-17T11:45:42.183Z,101231.22
2023-05-17T11:48:20.628Z,101225.16
2023-05-17T11:51:08.766Z,101221.25
2023-05-17T11:53:56.954Z,101223.72
2023-05-17T11:56:42.271Z,101214.50
2023-05-17T11:59:29.437Z,101223.63
2023-05-17T12:02:09.083Z,101222.22
2023-05-17T12:04:51.247Z,101212.22
2023-05-17T12:07:33.014Z,101220.19
2023-05-17T12:10:01.915Z,101217.31
2023-05-17T12:12:32.690Z,101206.38
2023-05-17T12:15:13.355Z,101210.41
2023-05-17T12:18:17.518Z,101205.69
2023-05-17T12:21:02.113Z,101199.34
2023-05-17T12:23:50.304Z,101209.38
2023-05-17T12:26:30.968Z,101203.25
2023-05-17T12:29:03.806Z,101208.69
2023-05-17T12:31:40.982Z,101196.66
2023-05-17T12:34:46.399Z,101192.06
2023-05-17T12:37:22.200Z,101189.91
2023-05-17T12:40:03.900Z,101197.06
2023-05-17T12:42:44.620Z,101202.25
2023-05-17T12:45:31.800Z,101207.97
2023-05-17T12:48:27.198Z,101202.34
2023-05-17T12:51:05.813Z,101216.88
2023-05-17T12:54:03.965Z,101216.91
2023-05-17T12:56:57.103Z,101234.94
2023-05-17T12:59:38.923Z,101225.72
2023-05-17T13:02:16.276Z,101230.31
2023-05-17T13:05:22.405Z,101236.38
2023-05-17T13:08:24.813Z,101237.19
2023-05-17T13:13:44.411Z,101240.28
2023-05-17T13:16:17.545Z,101254.81
2023-05-17T13:19:20.712Z,101260.16
2023-05-17T13:21:55.190Z,101259.22
2023-05-17T13:24:45.518Z,101262.75
2023-05-17T13:27:21.549Z,101264.81
2023-05-17T13:30:15.818Z,101260.91
2023-05-17T13:33:25.513Z,101279.47
2023-05-17T13:35:57.996Z,101276.03
2023-05-17T13:38:31.806Z,101261.13
2023-05-17T13:41:09.603Z,101257.66
2023-05-17T13:44:02.494Z,101282.84
2023-05-17T13:46:51.834Z,101281.34
2023-05-17T13:49:22.802Z,101283.34
2023-05-17T13:52:08.811Z,101278.09
2023-05-17T13:54:40.778Z,101280.00
2023-05-17T13:57:17.639Z,101277.94
2023-05-17T14:00:03.123Z,101277.75
2023-05-17T14:02:45.699Z,101275.63
2023-05-17T14:05:15.329Z,101294.13
2023-05-17T14:07:46.946Z,101294.47
2023-05-17T14:10:16.091Z,101294.06
2023-05-17T14:13:17.269Z,101286.84
2023-05-17T14:15:57.714Z,101280.81
2023-05-17T14:21:21.706Z,101278.09
2023-05-17T14:23:56.294Z,101277.69
2023-05-17T14:26:46.105Z,101288.03
2023-05-17T14:29:19.398Z,101286.91
2023-05-17T14:31:58.228Z,101292.25
2023-05-17T14:34:55.556Z,101301.84
2023-05-17T14:38:03.362Z,101294.03
2023-05-17T14:40:48.498Z,101279.41
2023-05-17T14:43:25.759Z,101288.47
2023-05-17T14:46:11.685Z,101309.31
2023-05-17T14:49:05.717Z,101313.41
2023-05-17T14:51:46.078Z,101314.28
2023-05-17T14:55:04.459Z,101309.06
2023-05-17T14:57:34.901Z,101303.69
2023-05-17T15:00:18.629Z,101300.66
2023-05-17T15:03:21.792Z,101300.88
2023-05-17T15:06:12.012Z,101298.41
2023-05-17T15:08:55.235Z,101293.84
2023-05-17T15:11:30.264Z,101305.22
2023-05-17T15:14:14.568Z,101309.16
2023-05-17T15:16:52.957Z,101300.28
2023-05-17T15:19:38.509Z,101312.34
2023-05-17T15:22:13.669Z,101318.78
2023-05-17T15:25:00.200Z,101321.69
2023-05-17T15:27:51.509Z,101318.47
2023-05-17T15:30:37.961Z,101323.66
2023-05-17T15:33:43.042Z,101325.50
2023-05-17T15:36:25.981Z,101326.31
2023-05-17T15:39:09.445Z,101329.03
2023-05-17T15:41:45.760Z,101341.34
2023-05-17T15:44:19.178Z,101330.75
2023-05-17T15:47:03.197Z,101338.09
2023-05-17T15:49:41.520Z,101342.44
2023-05-17T15:52:24.842Z,101338.03
2023-05-17T15:55:07.711Z,101340.03
2023-05-17T15:58:00.597Z,101339.97
2023-05-17T16:00:55.266Z,101337.94
2023-05-17T16:03:30.529Z,101326.66
2023-05-17T16:09:34.866Z,101337.00
2023-05-17T16:12:22.406Z,101343.25
2023-05-17T16:15:28.620Z,101344.16
2023-05-17T16:18:22.294Z,101353.78
2023-05-17T16:21:24.078Z,101345.09
2023-05-17T16:24:26.778Z,101349.47
2023-05-17T16:27:08.135Z,101350.28
2023-05-17T16:29:47.226Z,101353.84
2023-05-17T16:32:29.847Z,101354.72
2023-05-17T16:35:48.060Z,101356.47
2023-05-17T16:38:34.659Z,101361.94
2023-05-17T16:41:28.841Z,101352.13
2023-05-17T16:44:22.722Z,101348.66
2023-05-17T16:47:02.928Z,101352.06
2023-05-17T16:49:52.329Z,101360.22
2023-05-17T16:55:47.087Z,101358.34
2023-05-17T16:58:32.253Z,101365.34
2023-05-17T17:01:28.322Z,101361.94
2023-05-17T17:04:01.254Z,101363.56
2023-05-17T17:06:45.218Z,101357.44
2023-05-17T17:09:42.031Z,101368.88
2023-05-17T17:12:47.329Z,101363.66
2023-05-17T17:15:39.408Z,101367.09
2023-05-17T17:18:32.016Z,101374.97
2023-05-17T17:21:26.172Z,101375.81
2023-05-17T17:24:25.887Z,101376.69
2023-05-17T17:27:18.703Z,101372.34
2023-05-17T17:30:00.210Z,101389.00
2023-05-17T17:32:57.859Z,101385.66
2023-05-17T17:35:56.054Z,101386.41
2023-05-17T17:38:41.922Z,101386.44
2023-05-17T17:41:18.093Z,101382.00
2023-05-17T17:44:02.893Z,101395.22
2023-05-17T17:46:43.731Z,101397.84
2023-05-17T17:49:33.826Z,101396.81
2023-05-17T17:52:08.312Z,101400.31
2023-05-17T17:54:50.984Z,101409.00
2023-05-17T17:57:34.143Z,101402.31
2023-05-17T18:00:23.381Z,101402.28
2023-05-17T18:03:18.694Z,101410.28
2023-05-17T18:05:58.304Z,101402.38
2023-05-17T18:09:36.170Z,101410.31
2023-05-17T18:12:13.664Z,101407.66
2023-05-17T18:15:06.835Z,101413.88
2023-05-17T18:18:06.030Z,101414.72
2023-05-17T18:20:45.708Z,101421.72
2023-05-17T18:23:26.517Z,101419.13
2023-05-17T18:26:11.393Z,101416.50
2023-05-17T18:29:07.624Z,101420.06
2023-05-17T18:31:52.285Z,101416.53
2023-05-17T18:34:28.835Z,101422.69
2023-05-17T18:37:06.099Z,101419.16
2023-05-17T18:40:02.030Z,101421.75
2023-05-17T18:42:38.213Z,101420.00
2023-05-17T18:45:32.074Z,101435.84
2023-05-17T18:48:18.315Z,101434.09
2023-05-17T18:51:11.874Z,101424.41
2023-05-17T18:53:56.279Z,101426.16
2023-05-17T18:56:47.116Z,101431.47
2023-05-17T18:59:28.388Z,101441.03
2023-05-17T19:02:12.624Z,101429.69
2023-05-17T19:04:54.844Z,101427.09
2023-05-17T19:10:37.876Z,101433.09
2023-05-17T19:13:11.226Z,101436.69
2023-05-17T19:15:47.473Z,101439.34
2023-05-17T19:18:31.170Z,101443.72
2023-05-17T19:21:15.835Z,101439.34
2023-05-17T19:24:18.112Z,101433.22
2023-05-17T19:27:11.087Z,101440.22
2023-05-17T19:29:43.565Z,101441.09
2023-05-17T19:32:20.919Z,101440.22
2023-05-17T19:34:51.489Z,101450.75
2023-05-17T19:37:26.923Z,101445.47
2023-05-17T19:40:00.537Z,101449.00
2023-05-17T19:42:27.947Z,101460.38
2023-05-17T19:44:58.601Z,101456.00
2023-05-17T19:47:30.109Z,101462.03
2023-05-17T19:50:04.343Z,101465.66
2023-05-17T19:52:40.556Z,101475.22
2023-05-17T19:55:33.261Z,101469.16
2023-05-17T19:58:11.155Z,101483.13
2023-05-17T20:00:41.541Z,101490.97
2023-05-17T20:03:12.149Z,101485.81
2023-05-17T20:05:47.280Z,101488.50
2023-05-17T20:08:16.181Z,101500.75
2023-05-17T20:10:46.918Z,101501.59
2023-05-17T20:13:16.889Z,101498.03
2023-05-17T20:15:51.424Z,101498.88
2023-05-17T20:18:22.733Z,101505.13
2023-05-17T20:21:04.604Z,101505.13
2023-05-17T20:23:33.078Z,101505.84
2023-05-17T20:26:09.612Z,101499.75
2023-05-17T20:28:46.823Z,101503.22
2023-05-17T20:31:22.056Z,101494.50
2023-05-17T20:33:56.769Z,101497.13
2023-05-17T20:36:43.518Z,101511.97
2023-05-17T20:39:11.240Z,101512.03
2023-05-17T20:41:38.659Z,101517.19
2023-05-17T20:44:08.001Z,101516.41
2023-05-17T20:46:35.627Z,101514.50
2023-05-17T20:49:05.967Z,101525.91
2023-05-17T20:51:33.729Z,101525.78
2023-05-17T20:54:00.945Z,101525.91
2023-05-17T20:56:31.711Z,101538.72
2023-05-17T20:59:07.396Z,101535.16
2023-05-17T21:01:44.214Z,101530.00
2023-05-17T21:04:14.537Z,101536.53
2023-05-17T21:06:44.652Z,101539.72
2023-05-17T21:09:14.579Z,101535.19
2023-05-17T21:12:01.615Z,101541.53
2023-05-17T21:14:31.316Z,101544.22
2023-05-17T21:16:58.535Z,101546.41
2023-05-17T21:19:25.637Z,101543.97
2023-05-17T21:21:53.393Z,101542.31
2023-05-17T21:24:22.975Z,101554.41
2023-05-17T21:26:50.070Z,101556.31
2023-05-17T21:29:20.040Z,101552.72
2023-05-17T21:31:50.292Z,101566.22
2023-05-17T21:34:17.560Z,101556.50
2023-05-17T21:36:44.881Z,101557.50
2023-05-17T21:39:12.186Z,101559.06
2023-05-17T21:41:39.352Z,101567.03
2023-05-17T21:44:10.207Z,101572.34
2023-05-17T21:46:39.781Z,101569.47
2023-05-17T21:49:09.384Z,101566.22
2023-05-17T21:51:36.584Z,101570.38
2023-05-17T21:54:11.761Z,101574.94
2023-05-17T21:56:43.897Z,101566.28
2023-05-17T21:59:11.347Z,101561.03
2023-05-17T22:01:38.641Z,101559.31
2023-05-17T22:04:09.475Z,101561.97
2023-05-17T22:06:39.469Z,101560.25
2023-05-17T22:09:10.000Z,101554.13
2023-05-17T22:11:38.769Z,101561.97
2023-05-17T22:14:07.680Z,101556.69
2023-05-17T22:16:36.413Z,101573.41
2023-05-17T22:19:04.127Z,101561.00
2023-05-17T22:21:32.255Z,101561.94
2023-05-17T22:24:02.506Z,101562.84
2023-05-17T22:26:29.696Z,101566.34
2023-05-17T22:28:56.952Z,101564.56
2023-05-17T22:31:26.574Z,101560.16
2023-05-17T22:33:56.148Z,101560.22
2023-05-17T22:36:25.174Z,101558.50
2023-05-17T22:38:52.478Z,101560.25
2023-05-17T22:41:22.446Z,101562.88
2023-05-17T22:43:52.542Z,101558.53
2023-05-17T22:46:20.323Z,101555.03
2023-05-17T22:48:52.981Z,101556.78
2023-05-17T22:51:30.223Z,101564.66
2023-05-17T22:53:58.084Z,101562.88
2023-05-17T22:56:25.170Z,101562.06
2023-05-17T22:58:52.353Z,101565.56
2023-05-17T23:01:19.516Z,101569.94
2023-05-17T23:03:46.721Z,101563.78
2023-05-17T23:06:14.078Z,101567.28
2023-05-17T23:08:42.349Z,101564.69
2023-05-17T23:11:09.498Z,101562.94
2023-05-17T23:13:36.644Z,101561.19
2023-05-17T23:16:04.536Z,101555.91
2023-05-17T23:18:31.795Z,101559.41
2023-05-17T23:21:00.411Z,101553.25
2023-05-17T23:23:30.146Z,101547.94
2023-05-17T23:25:57.610Z,101547.94
2023-05-17T23:28:25.285Z,101551.44
2023-05-17T23:30:53.994Z,101546.16
2023-05-17T23:33:21.127Z,101548.81
2023-05-17T23:35:48.360Z,101542.66
2023-05-17T23:38:15.926Z,101542.63
2023-05-17T23:40:43.935Z,101542.63
2023-05-17T23:43:10.986Z,101540.00
2023-05-17T23:45:38.156Z,101542.63
2023-05-17T23:48:05.303Z,101540.88
2023-05-17T23:50:32.611Z,101546.09
2023-05-17T23:53:03.885Z,101538.22
2023-05-17T23:55:31.474Z,101539.09
2023-05-17T23:57:58.645Z,101545.19
